createdAt,value
2018-10-11T00:00:20.427Z,1006.91
2018-10-11T00:01:20.511Z,1006.93
2018-10-11T00:02:19.916Z,1006.91
2018-10-11T00:03:19.966Z,1006.90
2018-10-11T00:04:19.950Z,1006.91
2018-10-11T00:05:20.080Z,1006.93
2018-10-11T00:06:19.953Z,1006.90
2018-10-11T00:07:19.949Z,1006.93
2018-10-11T00:08:19.883Z,1006.94
2018-10-11T00:09:19.880Z,1006.90
2018-10-11T00:10:21.477Z,1006.86
2018-10-11T00:11:21.388Z,1006.86
2018-10-11T00:12:21.511Z,1006.84
2018-10-11T00:13:21.399Z,1006.83
2018-10-11T00:14:21.549Z,1006.82
2018-10-11T00:15:21.476Z,1006.83
2018-10-11T00:16:21.566Z,1006.86
2018-10-11T00:17:21.458Z,1006.88
2018-10-11T00:18:21.526Z,1006.89
2018-10-11T00:19:21.513Z,1006.95
2018-10-11T00:20:21.516Z,1006.95
2018-10-11T00:21:21.454Z,1006.90
2018-10-11T00:22:21.472Z,1006.95
2018-10-11T00:23:19.868Z,1006.93
2018-10-11T00:24:21.428Z,1006.89
2018-10-11T00:25:19.765Z,1006.87
2018-10-11T00:26:19.862Z,1006.83
2018-10-11T00:27:21.393Z,1006.81
2018-10-11T00:28:19.653Z,1006.83
2018-10-11T00:29:19.737Z,1006.79
2018-10-11T00:30:19.730Z,1006.82
2018-10-11T00:31:19.553Z,1006.82
2018-10-11T00:32:19.565Z,1006.82
2018-10-11T00:33:19.658Z,1006.79
2018-10-11T00:34:19.377Z,1006.78
2018-10-11T00:35:19.765Z,1006.80
2018-10-11T00:36:19.861Z,1006.81
2018-10-11T00:37:19.805Z,1006.76
2018-10-11T00:38:19.466Z,1006.75
2018-10-11T00:39:19.496Z,1006.72
2018-10-11T00:40:19.603Z,1006.68
2018-10-11T00:41:19.591Z,1006.70
2018-10-11T00:42:19.815Z,1006.75
2018-10-11T00:43:19.305Z,1006.67
2018-10-11T00:44:20.230Z,1006.73
2018-10-11T00:45:19.574Z,1006.73
2018-10-11T00:46:19.857Z,1006.75
2018-10-11T00:47:19.779Z,1006.73
2018-10-11T00:48:20.105Z,1006.73
2018-10-11T00:49:19.597Z,1006.72
2018-10-11T00:50:19.536Z,1006.70
2018-10-11T00:51:19.535Z,1006.67
2018-10-11T00:52:19.522Z,1006.67
2018-10-11T00:53:19.541Z,1006.69
2018-10-11T00:54:19.776Z,1006.68
2018-10-11T00:55:19.739Z,1006.66
2018-10-11T00:56:19.554Z,1006.64
2018-10-11T00:57:19.645Z,1006.67
2018-10-11T00:58:19.509Z,1006.64
2018-10-11T00:59:19.559Z,1006.61
2018-10-11T01:00:19.542Z,1006.56
2018-10-11T01:01:19.568Z,1006.56
2018-10-11T01:02:19.579Z,1006.55
2018-10-11T01:03:19.709Z,1006.54
2018-10-11T01:04:19.701Z,1006.48
2018-10-11T01:05:19.786Z,1006.54
2018-10-11T01:06:19.862Z,1006.51
2018-10-11T01:07:19.836Z,1006.51
2018-10-11T01:08:19.887Z,1006.52
2018-10-11T01:09:19.771Z,1006.58
2018-10-11T01:10:19.803Z,1006.58
2018-10-11T01:11:19.753Z,1006.55
2018-10-11T01:12:19.875Z,1006.56
2018-10-11T01:13:19.895Z,1006.59
2018-10-11T01:14:19.888Z,1006.56
2018-10-11T01:15:20.079Z,1006.56
2018-10-11T01:16:19.815Z,1006.56
2018-10-11T01:17:19.800Z,1006.56
2018-10-11T01:18:21.673Z,1006.57
2018-10-11T01:19:19.543Z,1006.52
2018-10-11T01:20:19.529Z,1006.50
2018-10-11T01:21:19.753Z,1006.50
2018-10-11T01:22:20.019Z,1006.46
2018-10-11T01:23:19.587Z,1006.50
2018-10-11T01:24:19.774Z,1006.48
2018-10-11T01:25:19.766Z,1006.56
2018-10-11T01:26:19.864Z,1006.51
2018-10-11T01:27:19.798Z,1006.57
2018-10-11T01:28:20.150Z,1006.51
2018-10-11T01:29:19.634Z,1006.55
2018-10-11T01:30:19.445Z,1006.53
2018-10-11T01:31:19.515Z,1006.51
2018-10-11T01:32:19.522Z,1006.51
2018-10-11T01:33:19.405Z,1006.53
2018-10-11T01:34:19.402Z,1006.51
2018-10-11T01:35:18.976Z,1006.49
2018-10-11T01:36:19.401Z,1006.47
2018-10-11T01:37:19.416Z,1006.46
2018-10-11T01:38:19.409Z,1006.45
2018-10-11T01:39:20.036Z,1006.48
2018-10-11T01:40:19.509Z,1006.57
2018-10-11T01:41:19.505Z,1006.49
2018-10-11T01:42:20.580Z,1006.46
2018-10-11T01:43:19.428Z,1006.49
2018-10-11T01:44:19.450Z,1006.48
2018-10-11T01:45:19.661Z,1006.43
2018-10-11T01:46:19.513Z,1006.46
2018-10-11T01:47:19.508Z,1006.45
2018-10-11T01:48:19.945Z,1006.45
2018-10-11T01:49:20.429Z,1006.37
2018-10-11T01:50:19.454Z,1006.38
2018-10-11T01:51:19.436Z,1006.38
2018-10-11T01:52:19.446Z,1006.38
2018-10-11T01:53:19.401Z,1006.34
2018-10-11T01:54:19.391Z,1006.36
2018-10-11T01:55:19.357Z,1006.33
2018-10-11T01:56:19.422Z,1006.36
2018-10-11T01:57:19.744Z,1006.40
2018-10-11T01:58:19.433Z,1006.38
2018-10-11T01:59:19.471Z,1006.40
2018-10-11T02:00:19.445Z,1006.44
2018-10-11T02:01:19.456Z,1006.40
2018-10-11T02:02:19.522Z,1006.37
2018-10-11T02:03:19.445Z,1006.35
2018-10-11T02:04:19.115Z,1006.33
2018-10-11T02:05:17.911Z,1006.27
2018-10-11T02:06:19.437Z,1006.25
2018-10-11T02:07:19.062Z,1006.26
2018-10-11T02:08:19.411Z,1006.28
2018-10-11T02:09:19.504Z,1006.26
2018-10-11T02:10:19.427Z,1006.25
2018-10-11T02:11:19.356Z,1006.21
2018-10-11T02:12:19.419Z,1006.24
2018-10-11T02:13:19.418Z,1006.28
2018-10-11T02:14:19.412Z,1006.26
2018-10-11T02:15:19.434Z,1006.25
2018-10-11T02:16:19.202Z,1006.23
2018-10-11T02:17:19.437Z,1006.18
2018-10-11T02:18:19.483Z,1006.16
2018-10-11T02:19:19.437Z,1006.18
2018-10-11T02:20:19.449Z,1006.19
2018-10-11T02:21:19.049Z,1006.14
2018-10-11T02:22:19.483Z,1006.13
2018-10-11T02:23:19.443Z,1006.11
2018-10-11T02:24:19.453Z,1006.14
2018-10-11T02:25:21.183Z,1006.08
2018-10-11T02:26:19.642Z,1006.12
2018-10-11T02:27:19.636Z,1006.10
2018-10-11T02:28:19.369Z,1006.10
2018-10-11T02:29:19.643Z,1006.06
2018-10-11T02:30:19.642Z,1006.06
2018-10-11T02:31:19.644Z,1006.07
2018-10-11T02:32:19.638Z,1006.03
2018-10-11T02:33:19.597Z,1006.04
2018-10-11T02:34:19.635Z,1006.04
2018-10-11T02:35:19.643Z,1005.99
2018-10-11T02:36:19.646Z,1006.02
2018-10-11T02:37:19.675Z,1006.02
2018-10-11T02:38:19.601Z,1005.97
2018-10-11T02:39:19.601Z,1005.93
2018-10-11T02:40:19.610Z,1005.98
2018-10-11T02:41:19.378Z,1005.99
2018-10-11T02:42:19.607Z,1005.94
2018-10-11T02:43:19.378Z,1005.94
2018-10-11T02:44:20.101Z,1005.91
2018-10-11T02:45:19.603Z,1005.94
2018-10-11T02:46:19.380Z,1005.96
2018-10-11T02:47:19.602Z,1005.91
2018-10-11T02:48:19.607Z,1005.90
2018-10-11T02:49:19.648Z,1005.88
2018-10-11T02:50:19.647Z,1005.90
2018-10-11T02:51:19.642Z,1005.86
2018-10-11T02:52:19.651Z,1005.89
2018-10-11T02:53:19.647Z,1005.88
2018-10-11T02:54:19.648Z,1005.93
2018-10-11T02:55:19.651Z,1005.88
2018-10-11T02:56:19.642Z,1005.88
2018-10-11T02:57:19.645Z,1005.84
2018-10-11T02:58:20.872Z,1005.86
2018-10-11T02:59:19.107Z,1005.82
2018-10-11T03:00:19.152Z,1005.88
2018-10-11T03:01:21.151Z,1005.88
2018-10-11T03:02:21.105Z,1005.88
2018-10-11T03:03:20.897Z,1005.89
2018-10-11T03:04:21.113Z,1005.86
2018-10-11T03:05:19.112Z,1005.90
2018-10-11T03:06:19.106Z,1005.87
2018-10-11T03:07:20.894Z,1005.89
2018-10-11T03:08:21.151Z,1005.86
2018-10-11T03:09:20.938Z,1005.86
2018-10-11T03:10:20.904Z,1005.84
2018-10-11T03:11:19.291Z,1005.84
2018-10-11T03:12:20.895Z,1005.79
2018-10-11T03:13:21.146Z,1005.75
2018-10-11T03:14:20.909Z,1005.76
2018-10-11T03:15:21.115Z,1005.80
2018-10-11T03:16:19.067Z,1005.82
2018-10-11T03:17:20.904Z,1005.83
2018-10-11T03:18:19.106Z,1005.84
2018-10-11T03:19:19.151Z,1005.86
2018-10-11T03:20:19.152Z,1005.81
2018-10-11T03:21:19.156Z,1005.79
2018-10-11T03:22:19.116Z,1005.75
2018-10-11T03:23:18.891Z,1005.78
2018-10-11T03:24:19.141Z,1005.78
2018-10-11T03:25:18.928Z,1005.77
2018-10-11T03:26:19.136Z,1005.75
2018-10-11T03:27:19.133Z,1005.77
2018-10-11T03:28:19.182Z,1005.75
2018-10-11T03:29:19.389Z,1005.83
2018-10-11T03:30:21.036Z,1005.81
2018-10-11T03:31:18.935Z,1005.79
2018-10-11T03:32:19.224Z,1005.85
2018-10-11T03:33:19.280Z,1005.91
2018-10-11T03:34:19.657Z,1005.92
2018-10-11T03:35:19.152Z,1005.89
2018-10-11T03:36:19.116Z,1005.89
2018-10-11T03:37:19.132Z,1005.91
2018-10-11T03:38:19.044Z,1005.90
2018-10-11T03:39:19.100Z,1005.92
2018-10-11T03:40:19.072Z,1005.88
2018-10-11T03:41:19.082Z,1005.95
2018-10-11T03:42:19.606Z,1005.90
2018-10-11T03:43:19.834Z,1005.90
2018-10-11T03:44:19.465Z,1005.87
2018-10-11T03:45:19.212Z,1005.82
2018-10-11T03:46:19.235Z,1005.82
2018-10-11T03:47:19.195Z,1005.81
2018-10-11T03:48:19.247Z,1005.80
2018-10-11T03:49:19.350Z,1005.77
2018-10-11T03:50:19.300Z,1005.73
2018-10-11T03:51:19.332Z,1005.74
2018-10-11T03:52:19.660Z,1005.75
2018-10-11T03:53:19.530Z,1005.71
2018-10-11T03:54:19.141Z,1005.75
2018-10-11T03:55:19.115Z,1005.76
2018-10-11T03:56:19.216Z,1005.75
2018-10-11T03:57:19.122Z,1005.74
2018-10-11T03:58:19.019Z,1005.77
2018-10-11T03:59:19.223Z,1005.76
2018-10-11T04:00:19.499Z,1005.79
2018-10-11T04:01:19.068Z,1005.78
2018-10-11T04:02:19.474Z,1005.83
2018-10-11T04:03:19.801Z,1005.84
2018-10-11T04:04:19.755Z,1005.83
2018-10-11T04:05:18.916Z,1005.85
2018-10-11T04:06:19.618Z,1005.84
2018-10-11T04:07:19.345Z,1005.81
2018-10-11T04:08:18.974Z,1005.83
2018-10-11T04:09:18.914Z,1005.82
2018-10-11T04:10:18.940Z,1005.85
2018-10-11T04:11:19.043Z,1005.78
2018-10-11T04:12:18.925Z,1005.80
2018-10-11T04:13:18.978Z,1005.77
2018-10-11T04:14:19.633Z,1005.82
2018-10-11T04:15:18.838Z,1005.82
2018-10-11T04:16:19.155Z,1005.84
2018-10-11T04:17:19.400Z,1005.90
2018-10-11T04:18:18.981Z,1005.91
2018-10-11T04:19:19.477Z,1005.92
2018-10-11T04:20:19.166Z,1005.87
2018-10-11T04:21:19.058Z,1005.81
2018-10-11T04:22:19.128Z,1005.81
2018-10-11T04:23:19.226Z,1005.72
2018-10-11T04:24:19.596Z,1005.76
2018-10-11T04:25:18.994Z,1005.71
2018-10-11T04:26:19.495Z,1005.75
2018-10-11T04:27:19.008Z,1005.78
2018-10-11T04:28:19.024Z,1005.79
2018-10-11T04:29:19.466Z,1005.75
2018-10-11T04:30:18.941Z,1005.76
2018-10-11T04:31:19.225Z,1005.75
2018-10-11T04:32:18.999Z,1005.74
2018-10-11T04:33:18.945Z,1005.74
2018-10-11T04:34:18.958Z,1005.73
2018-10-11T04:35:19.157Z,1005.74
2018-10-11T04:36:19.147Z,1005.73
2018-10-11T04:37:19.125Z,1005.74
2018-10-11T04:38:19.010Z,1005.70
2018-10-11T04:39:18.946Z,1005.72
2018-10-11T04:40:18.658Z,1005.66
2018-10-11T04:41:19.173Z,1005.68
2018-10-11T04:42:19.167Z,1005.64
2018-10-11T04:43:19.277Z,1005.67
2018-10-11T04:44:18.955Z,1005.71
2018-10-11T04:45:17.353Z,1005.71
2018-10-11T04:46:18.605Z,1005.69
2018-10-11T04:47:18.984Z,1005.71
2018-10-11T04:48:19.588Z,1005.72
2018-10-11T04:49:19.183Z,1005.75
2018-10-11T04:50:19.503Z,1005.72
2018-10-11T04:51:18.632Z,1005.73
2018-10-11T04:52:18.629Z,1005.76
2018-10-11T04:53:18.995Z,1005.72
2018-10-11T04:54:19.242Z,1005.74
2018-10-11T04:55:19.582Z,1005.70
2018-10-11T04:56:18.993Z,1005.74
2018-10-11T04:57:19.476Z,1005.71
2018-10-11T04:58:19.201Z,1005.74
2018-10-11T04:59:19.764Z,1005.79
2018-10-11T05:00:18.734Z,1005.78
2018-10-11T05:01:17.290Z,1005.85
2018-10-11T05:02:18.028Z,1005.84
2018-10-11T05:03:17.276Z,1005.82
2018-10-11T05:04:17.882Z,1005.82
2018-10-11T05:05:17.314Z,1005.80
2018-10-11T05:06:18.698Z,1005.84
2018-10-11T05:07:18.460Z,1005.79
2018-10-11T05:08:18.986Z,1005.81
2018-10-11T05:09:18.322Z,1005.82
2018-10-11T05:10:17.950Z,1005.84
2018-10-11T05:11:18.476Z,1005.83
2018-10-11T05:12:19.141Z,1005.86
2018-10-11T05:13:18.398Z,1005.87
2018-10-11T05:14:18.633Z,1005.86
2018-10-11T05:15:18.705Z,1005.84
2018-10-11T05:16:19.210Z,1005.79
2018-10-11T05:17:18.195Z,1005.84
2018-10-11T05:18:18.683Z,1005.86
2018-10-11T05:19:18.647Z,1005.82
2018-10-11T05:20:18.684Z,1005.82
2018-10-11T05:21:18.410Z,1005.80
2018-10-11T05:22:17.219Z,1005.86
2018-10-11T05:23:18.381Z,1005.88
2018-10-11T05:24:19.189Z,1005.85
2018-10-11T05:25:18.191Z,1005.91
2018-10-11T05:26:18.695Z,1006.02
2018-10-11T05:27:18.680Z,1006.04
2018-10-11T05:28:18.638Z,1006.02
2018-10-11T05:29:20.696Z,1006.07
2018-10-11T05:30:18.512Z,1006.09
2018-10-11T05:31:18.593Z,1006.09
2018-10-11T05:32:20.778Z,1006.11
2018-10-11T05:33:18.687Z,1006.10
2018-10-11T05:34:18.523Z,1006.06
2018-10-11T05:35:18.170Z,1006.04
2018-10-11T05:36:18.944Z,1006.03
2018-10-11T05:37:22.709Z,1006.00
2018-10-11T05:38:18.267Z,1005.99
2018-10-11T05:39:18.846Z,1005.99
2018-10-11T05:40:17.176Z,1005.96
2018-10-11T05:41:18.639Z,1005.94
2018-10-11T05:42:20.187Z,1005.95
2018-10-11T05:43:19.090Z,1005.95
2018-10-11T05:44:19.189Z,1005.87
2018-10-11T05:45:18.649Z,1005.90
2018-10-11T05:46:18.678Z,1005.89
2018-10-11T05:47:18.599Z,1005.96
2018-10-11T05:48:19.374Z,1005.97
2018-10-11T05:49:19.049Z,1005.98
2018-10-11T05:50:20.455Z,1006.00
2018-10-11T05:51:18.981Z,1005.98
2018-10-11T05:52:18.696Z,1006.04
2018-10-11T05:53:17.177Z,1005.97
2018-10-11T05:54:19.252Z,1005.98
2018-10-11T05:55:18.540Z,1005.95
2018-10-11T05:56:19.067Z,1005.99
2018-10-11T05:57:18.647Z,1005.96
2018-10-11T05:58:18.720Z,1006.00
2018-10-11T05:59:18.678Z,1005.98
2018-10-11T06:00:18.522Z,1005.98
2018-10-11T06:01:18.591Z,1006.00
2018-10-11T06:02:20.139Z,1005.98
2018-10-11T06:03:18.591Z,1005.99
2018-10-11T06:04:18.301Z,1006.04
2018-10-11T06:05:19.089Z,1006.08
2018-10-11T06:06:17.719Z,1006.04
2018-10-11T06:07:18.339Z,1006.02
2018-10-11T06:08:18.173Z,1006.02
2018-10-11T06:09:18.693Z,1006.05
2018-10-11T06:11:51.207Z,1006.02
2018-10-11T06:12:51.149Z,1006.05
2018-10-11T06:14:44.170Z,1006.01
2018-10-11T06:15:44.836Z,1006.02
2018-10-11T06:17:40.379Z,1006.03
2018-10-11T06:18:38.912Z,1006.03
2018-10-11T06:20:33.706Z,1006.00
2018-10-11T06:21:34.586Z,1006.07
2018-10-11T06:23:28.278Z,1006.08
2018-10-11T06:24:28.805Z,1006.12
2018-10-11T06:26:22.948Z,1006.14
2018-10-11T06:27:23.262Z,1006.14
2018-10-11T06:29:17.832Z,1006.22
2018-10-11T06:30:17.974Z,1006.18
2018-10-11T06:32:12.247Z,1006.17
2018-10-11T06:33:12.843Z,1006.21
2018-10-11T06:35:07.454Z,1006.22
2018-10-11T06:36:09.054Z,1006.23
2018-10-11T06:38:02.046Z,1006.34
2018-10-11T06:39:01.565Z,1006.32
2018-10-11T06:40:02.127Z,1006.38
2018-10-11T06:41:02.113Z,1006.31
2018-10-11T06:42:02.099Z,1006.35
2018-10-11T06:43:02.119Z,1006.33
2018-10-11T06:44:01.838Z,1006.35
2018-10-11T06:45:02.145Z,1006.35
2018-10-11T06:46:02.127Z,1006.35
2018-10-11T06:47:01.905Z,1006.34
2018-10-11T06:48:01.943Z,1006.34
2018-10-11T06:49:02.078Z,1006.32
2018-10-11T06:50:02.229Z,1006.35
2018-10-11T06:51:04.083Z,1006.33
2018-10-11T06:52:01.901Z,1006.33
2018-10-11T06:53:02.126Z,1006.31
2018-10-11T06:54:02.436Z,1006.28
2018-10-11T06:55:01.903Z,1006.27
2018-10-11T06:56:01.683Z,1006.28
2018-10-11T06:57:02.149Z,1006.24
2018-10-11T06:58:02.417Z,1006.27
2018-10-11T06:59:02.157Z,1006.28
2018-10-11T07:00:02.348Z,1006.28
2018-10-11T07:01:02.146Z,1006.29
2018-10-11T07:02:01.976Z,1006.30
2018-10-11T07:03:02.028Z,1006.31
2018-10-11T07:04:02.718Z,1006.30
2018-10-11T07:05:02.081Z,1006.31
2018-10-11T07:06:01.921Z,1006.31
2018-10-11T07:07:04.256Z,1006.32
2018-10-11T07:08:01.580Z,1006.32
2018-10-11T07:09:01.410Z,1006.37
2018-10-11T07:10:01.924Z,1006.41
2018-10-11T07:11:01.932Z,1006.43
2018-10-11T07:12:02.077Z,1006.46
2018-10-11T07:13:00.284Z,1006.49
2018-10-11T07:14:08.037Z,1006.48
2018-10-11T07:15:02.173Z,1006.48
2018-10-11T07:16:02.638Z,1006.49
2018-10-11T07:17:02.095Z,1006.46
2018-10-11T07:18:02.084Z,1006.49
2018-10-11T07:19:01.937Z,1006.54
2018-10-11T07:20:01.583Z,1006.46
2018-10-11T07:21:04.114Z,1006.54
2018-10-11T07:22:02.168Z,1006.59
2018-10-11T07:23:02.156Z,1006.55
2018-10-11T07:24:02.075Z,1006.61
2018-10-11T07:25:02.423Z,1006.58
2018-10-11T07:26:01.741Z,1006.61
2018-10-11T07:27:02.161Z,1006.62
2018-10-11T07:28:01.637Z,1006.65
2018-10-11T07:29:01.927Z,1006.65
2018-10-11T07:30:01.687Z,1006.67
2018-10-11T07:31:01.870Z,1006.66
2018-10-11T07:32:04.158Z,1006.66
2018-10-11T07:33:01.626Z,1006.68
2018-10-11T07:34:02.135Z,1006.67
2018-10-11T07:35:02.208Z,1006.67
2018-10-11T07:36:02.088Z,1006.68
2018-10-11T07:37:01.886Z,1006.73
2018-10-11T07:38:01.938Z,1006.78
2018-10-11T07:39:02.150Z,1006.72
2018-10-11T07:40:01.224Z,1006.73
2018-10-11T07:41:03.742Z,1006.79
2018-10-11T07:42:01.637Z,1006.79
2018-10-11T07:43:01.976Z,1006.85
2018-10-11T07:44:02.574Z,1006.90
2018-10-11T07:45:02.523Z,1006.93
2018-10-11T07:46:01.229Z,1006.92
2018-10-11T07:47:02.389Z,1006.90
2018-10-11T07:48:01.170Z,1006.89
2018-10-11T07:49:03.474Z,1006.92
2018-10-11T07:50:02.201Z,1006.91
2018-10-11T07:51:04.010Z,1006.93
2018-10-11T07:52:01.960Z,1006.95
2018-10-11T07:53:02.198Z,1006.94
2018-10-11T07:54:01.697Z,1006.97
2018-10-11T07:55:01.593Z,1007.01
2018-10-11T07:56:01.589Z,1006.99
2018-10-11T07:57:02.150Z,1006.97
2018-10-11T07:58:01.627Z,1006.98
2018-10-11T07:59:01.672Z,1006.94
2018-10-11T08:00:02.159Z,1006.95
2018-10-11T08:01:01.606Z,1006.95
2018-10-11T08:02:01.590Z,1006.94
2018-10-11T08:03:01.687Z,1006.90
2018-10-11T08:04:02.287Z,1006.90
2018-10-11T08:05:00.193Z,1006.90
2018-10-11T08:06:01.183Z,1006.91
2018-10-11T08:07:01.292Z,1006.89
2018-10-11T08:08:00.510Z,1006.93
2018-10-11T08:09:01.114Z,1006.91
2018-10-11T08:10:00.429Z,1006.93
2018-10-11T08:11:00.581Z,1006.92
2018-10-11T08:12:00.334Z,1006.92
2018-10-11T08:13:00.186Z,1006.87
2018-10-11T08:14:00.975Z,1006.93
2018-10-11T08:15:00.185Z,1006.95
2018-10-11T08:16:00.171Z,1006.97
2018-10-11T08:17:00.304Z,1007.01
2018-10-11T08:18:01.280Z,1006.98
2018-10-11T08:19:00.840Z,1006.99
2018-10-11T08:20:00.351Z,1007.07
2018-10-11T08:21:00.137Z,1007.09
2018-10-11T08:22:00.447Z,1007.06
2018-10-11T08:23:00.408Z,1007.02
2018-10-11T08:24:00.162Z,1007.07
2018-10-11T08:25:00.299Z,1007.00
2018-10-11T08:26:02.854Z,1007.03
2018-10-11T08:27:00.496Z,1007.02
2018-10-11T08:28:01.763Z,1007.03
2018-10-11T08:29:00.759Z,1007.05
2018-10-11T08:30:00.435Z,1007.06
2018-10-11T08:31:00.309Z,1007.09
2018-10-11T08:33:01.552Z,1007.14
2018-10-11T08:34:00.255Z,1007.13
2018-10-11T08:35:00.726Z,1007.17
2018-10-11T08:36:00.596Z,1007.14
2018-10-11T08:37:03.137Z,1007.20
2018-10-11T08:38:02.170Z,1007.22
2018-10-11T08:39:02.146Z,1007.25
2018-10-11T08:40:00.838Z,1007.16
2018-10-11T08:41:01.759Z,1007.24
2018-10-11T08:43:33.129Z,1007.20
2018-10-11T08:44:34.028Z,1007.25
2018-10-11T08:46:27.547Z,1007.23
2018-10-11T08:47:28.696Z,1007.25
2018-10-11T08:49:21.344Z,1007.23
2018-10-11T08:50:22.103Z,1007.22
2018-10-11T08:52:16.747Z,1007.17
2018-10-11T08:53:16.691Z,1007.18
2018-10-11T08:55:10.469Z,1007.24
2018-10-11T08:56:10.165Z,1007.23
2018-10-11T08:57:10.142Z,1007.22
2018-10-11T08:58:11.744Z,1007.20
2018-10-11T08:59:11.851Z,1007.22
2018-10-11T09:00:11.200Z,1007.18
2018-10-11T09:01:11.355Z,1007.18
2018-10-11T09:02:11.681Z,1007.16
2018-10-11T09:03:11.948Z,1007.12
2018-10-11T09:04:10.869Z,1007.19
2018-10-11T09:05:11.339Z,1007.21
2018-10-11T09:06:13.673Z,1007.16
2018-10-11T09:07:11.786Z,1007.20
2018-10-11T09:08:11.785Z,1007.18
2018-10-11T09:09:11.285Z,1007.16
2018-10-11T09:10:12.172Z,1007.15
2018-10-11T09:11:11.766Z,1007.10
2018-10-11T09:12:12.261Z,1007.10
2018-10-11T09:13:11.247Z,1007.12
2018-10-11T09:14:12.130Z,1007.15
2018-10-11T09:15:11.410Z,1007.17
2018-10-11T09:16:11.860Z,1007.15
2018-10-11T09:17:11.797Z,1007.16
2018-10-11T09:18:12.243Z,1007.17
2018-10-11T09:19:11.841Z,1007.16
2018-10-11T09:20:11.840Z,1007.14
2018-10-11T09:21:11.842Z,1007.18
2018-10-11T09:22:11.571Z,1007.19
2018-10-11T09:23:14.175Z,1007.19
2018-10-11T09:24:11.862Z,1007.15
2018-10-11T09:25:11.658Z,1007.16
2018-10-11T09:26:11.746Z,1007.19
2018-10-11T09:27:12.135Z,1007.21
2018-10-11T09:28:19.394Z,1007.17
2018-10-11T09:29:11.787Z,1007.15
2018-10-11T09:30:11.893Z,1007.16
2018-10-11T09:31:12.163Z,1007.18
2018-10-11T09:32:10.620Z,1007.19
2018-10-11T09:33:17.875Z,1007.20
2018-10-11T09:34:11.715Z,1007.18
2018-10-11T09:35:11.796Z,1007.20
2018-10-11T09:36:13.828Z,1007.17
2018-10-11T09:37:12.233Z,1007.16
2018-10-11T09:38:12.987Z,1007.17
2018-10-11T09:39:11.885Z,1007.17
2018-10-11T09:40:11.991Z,1007.20
2018-10-11T09:41:13.879Z,1007.21
2018-10-11T09:42:14.916Z,1007.16
2018-10-11T09:43:11.847Z,1007.22
2018-10-11T09:44:12.229Z,1007.22
2018-10-11T09:45:11.202Z,1007.19
2018-10-11T09:46:11.640Z,1007.22
2018-10-11T09:47:11.740Z,1007.21
2018-10-11T09:48:12.256Z,1007.23
2018-10-11T09:49:11.852Z,1007.31
2018-10-11T09:50:11.874Z,1007.24
2018-10-11T09:51:11.925Z,1007.28
2018-10-11T09:52:11.863Z,1007.31
2018-10-11T09:53:10.380Z,1007.33
2018-10-11T09:54:12.157Z,1007.35
2018-10-11T09:55:12.183Z,1007.38
2018-10-11T09:56:11.820Z,1007.39
2018-10-11T09:57:12.157Z,1007.43
2018-10-11T09:58:12.217Z,1007.47
2018-10-11T09:59:11.769Z,1007.43
2018-10-11T10:00:11.892Z,1007.37
2018-10-11T10:01:11.413Z,1007.40
2018-10-11T10:02:11.350Z,1007.42
2018-10-11T10:03:11.708Z,1007.36
2018-10-11T10:04:11.875Z,1007.44
2018-10-11T10:05:11.447Z,1007.45
2018-10-11T10:06:12.043Z,1007.36
2018-10-11T10:07:11.851Z,1007.34
2018-10-11T10:08:11.877Z,1007.35
2018-10-11T10:09:12.169Z,1007.33
2018-10-11T10:10:11.903Z,1007.35
2018-10-11T10:11:11.832Z,1007.37
2018-10-11T10:12:11.807Z,1007.41
2018-10-11T10:13:12.257Z,1007.38
2018-10-11T10:14:14.147Z,1007.40
2018-10-11T10:15:11.848Z,1007.32
2018-10-11T10:16:14.769Z,1007.36
2018-10-11T10:17:11.331Z,1007.34
2018-10-11T10:18:11.890Z,1007.34
2018-10-11T10:19:12.174Z,1007.30
2018-10-11T10:20:12.160Z,1007.36
2018-10-11T10:21:11.938Z,1007.39
2018-10-11T10:22:12.311Z,1007.44
2018-10-11T10:23:12.151Z,1007.43
2018-10-11T10:24:10.060Z,1007.47
2018-10-11T10:25:12.935Z,1007.51
2018-10-11T10:26:11.566Z,1007.54
2018-10-11T10:27:11.923Z,1007.54
2018-10-11T10:28:11.860Z,1007.60
2018-10-11T10:29:12.154Z,1007.61
2018-10-11T10:30:11.319Z,1007.57
2018-10-11T10:31:11.883Z,1007.55
2018-10-11T10:32:11.873Z,1007.57
2018-10-11T10:33:11.707Z,1007.58
2018-10-11T10:34:12.200Z,1007.61
2018-10-11T10:35:11.923Z,1007.60
2018-10-11T10:36:12.247Z,1007.58
2018-10-11T10:37:11.310Z,1007.61
2018-10-11T10:38:11.320Z,1007.59
2018-10-11T10:39:11.371Z,1007.58
2018-10-11T10:40:12.177Z,1007.58
2018-10-11T10:41:11.617Z,1007.50
2018-10-11T10:42:12.171Z,1007.53
2018-10-11T10:43:12.367Z,1007.50
2018-10-11T10:44:11.877Z,1007.52
2018-10-11T10:45:11.137Z,1007.53
2018-10-11T10:46:11.672Z,1007.46
2018-10-11T10:47:12.309Z,1007.52
2018-10-11T10:48:11.834Z,1007.52
2018-10-11T10:49:11.823Z,1007.53
2018-10-11T10:50:12.215Z,1007.51
2018-10-11T10:51:12.317Z,1007.55
2018-10-11T10:52:13.921Z,1007.54
2018-10-11T10:53:13.897Z,1007.51
2018-10-11T10:54:11.925Z,1007.51
2018-10-11T10:55:11.835Z,1007.49
2018-10-11T10:56:11.899Z,1007.48
2018-10-11T10:57:11.309Z,1007.52
2018-10-11T10:58:11.900Z,1007.46
2018-10-11T10:59:11.808Z,1007.43
2018-10-11T11:00:11.693Z,1007.48
2018-10-11T11:01:14.351Z,1007.40
2018-10-11T11:02:11.930Z,1007.46
2018-10-11T11:03:11.916Z,1007.47
2018-10-11T11:04:11.919Z,1007.50
2018-10-11T11:05:12.203Z,1007.45
2018-10-11T11:06:11.864Z,1007.46
2018-10-11T11:07:13.052Z,1007.48
2018-10-11T11:08:12.387Z,1007.51
2018-10-11T11:09:13.836Z,1007.51
2018-10-11T11:10:12.406Z,1007.48
2018-10-11T11:11:12.344Z,1007.49
2018-10-11T11:12:12.066Z,1007.41
2018-10-11T11:13:12.376Z,1007.37
2018-10-11T11:14:12.334Z,1007.46
2018-10-11T11:15:11.905Z,1007.47
2018-10-11T11:16:11.839Z,1007.47
2018-10-11T11:17:11.439Z,1007.40
2018-10-11T11:18:13.896Z,1007.29
2018-10-11T11:19:12.223Z,1007.37
2018-10-11T11:20:11.843Z,1007.36
2018-10-11T11:21:12.354Z,1007.36
2018-10-11T11:22:12.466Z,1007.40
2018-10-11T11:23:12.396Z,1007.37
2018-10-11T11:24:12.282Z,1007.38
2018-10-11T11:25:12.368Z,1007.31
2018-10-11T11:26:12.696Z,1007.36
2018-10-11T11:27:12.434Z,1007.37
2018-10-11T11:28:12.375Z,1007.39
2018-10-11T11:29:12.400Z,1007.40
2018-10-11T11:30:12.356Z,1007.39
2018-10-11T11:31:12.443Z,1007.41
2018-10-11T11:32:12.257Z,1007.42
2018-10-11T11:33:12.721Z,1007.37
2018-10-11T11:34:12.237Z,1007.37
2018-10-11T11:35:12.361Z,1007.34
2018-10-11T11:36:12.408Z,1007.33
2018-10-11T11:37:12.794Z,1007.37
2018-10-11T11:38:12.599Z,1007.36
2018-10-11T11:39:14.105Z,1007.42
2018-10-11T11:40:12.444Z,1007.41
2018-10-11T11:41:12.364Z,1007.35
2018-10-11T11:42:12.364Z,1007.32
2018-10-11T11:43:12.374Z,1007.31
2018-10-11T11:44:12.362Z,1007.32
2018-10-11T11:45:12.464Z,1007.30
2018-10-11T11:46:11.768Z,1007.27
2018-10-11T11:47:12.433Z,1007.26
2018-10-11T11:48:14.967Z,1007.29
2018-10-11T11:49:12.021Z,1007.31
2018-10-11T11:50:12.471Z,1007.34
2018-10-11T11:51:12.785Z,1007.31
2018-10-11T11:52:12.489Z,1007.34
2018-10-11T11:53:12.516Z,1007.31
2018-10-11T11:54:13.364Z,1007.27
2018-10-11T11:55:12.921Z,1007.18
2018-10-11T11:56:12.451Z,1007.24
2018-10-11T11:57:12.452Z,1007.23
2018-10-11T11:58:12.926Z,1007.29
2018-10-11T11:59:14.770Z,1007.25
2018-10-11T12:00:14.602Z,1007.29
2018-10-11T12:01:14.958Z,1007.27
2018-10-11T12:02:13.482Z,1007.29
2018-10-11T12:03:12.974Z,1007.27
2018-10-11T12:04:12.725Z,1007.22
2018-10-11T12:05:12.727Z,1007.14
2018-10-11T12:06:13.330Z,1007.04
2018-10-11T12:07:13.293Z,1007.10
2018-10-11T12:08:13.439Z,1007.13
2018-10-11T12:09:12.976Z,1007.16
2018-10-11T12:10:12.887Z,1007.15
2018-10-11T12:11:12.933Z,1007.17
2018-10-11T12:12:12.983Z,1007.13
2018-10-11T12:13:12.981Z,1007.16
2018-10-11T12:14:13.036Z,1007.15
2018-10-11T12:15:13.016Z,1007.05
2018-10-11T12:16:13.131Z,1006.98
2018-10-11T12:17:12.955Z,1006.97
2018-10-11T12:18:12.883Z,1006.97
2018-10-11T12:19:12.883Z,1007.06
2018-10-11T12:20:12.887Z,1007.09
2018-10-11T12:21:12.883Z,1007.10